Beaumont, TX (77701)

5:02 PM CDT on October 21, 2014 (GMT -0500)
BeaumontEOC | Change Station
CLOSE
Current Station
Personal Weather Station
Location: Beaumont, TX
Elevation: 33 ft
Nearby Weather Stations

Elev 33 ft 30.08 °N, 94.10 °W | Updated 5 seconds ago

Clear
Clear
79.9 °F
Feels Like 81 °F
N
3.1
Wind Variable Wind from West
Gusts 3.1 mph

Today
High -- | Low -- °F
--% Chance of Precip.
Yesterday
High -- | Low -- °F
Precip. -- in
7:22 AM 6:39 PM
Waning Crescent, 4% visible
Pressure 29.99 in
Visibility 10.0 miles
Clouds Clear
Heat Index 81 °F
Dew Point 62 °F
Humidity 54%
Rainfall 0.00 in
Snow Depth Not available.
UV 0.0 out of 12
Pollen 6.30 out of 12
Ozone Good
PM2.5 Moderate
Flu Activity Sporadic
METAR KBMT 212155Z AUTO 05007KT 10SM CLR 26/15 A2999 RMK AO2 T02640149

More Conditions Fewer Conditions

Pressure 29.99 in
Visibility 10.0 miles
Clouds Clear
Heat Index 81 °F
Dew Point 62 °F
Humidity 54%
Rainfall 0.00 in
Snow Depth Not available.
UV 0.0 out of 12
Pollen 6.30 out of 12
Ozone Good
PM2.5 Moderate
Flu Activity Sporadic
METAR KBMT 212155Z AUTO 05007KT 10SM CLR 26/15 A2999 RMK AO2 T02640149

More Conditions Fewer Conditions

10-Day Weather Forecast

Almanac

Astronomy

Oct. 21, 2014 Rise Set
Actual Time 7:22 AM CDT 6:39 PM CDT
Civil Twilight 6:58 AM CDT 7:03 PM CDT
Nautical Twilight 6:30 AM CDT 7:31 PM CDT
Astronomical Twilight 6:02 AM CDT 7:59 PM CDT
Moon 5:16 AM CDT 5:26 PM CDT
Length of Visible Light 12h 05m
Length of Day
11h 16m
Tomorrow will be 1m 41s shorter.
Waning Crescent, 4% of the Moon is Illuminated
Today
Waning Crescent
Oct 23
New
Oct 30
First Quarter
Nov 6
Full
Nov 14
Last Quarter

Today's Extremes

State Highs State Lows

Community

WunderPhotos

Upload Photos

1,763,793 photos uploaded!

Nearby

Air Quality

  Air Quality AQ Index Pollutant
Yesterday Moderate
OZONE
Yesterday Good
PM2.5
Current Moderate
PM2.5
Current Good
OZONE
Tuesday Good
PM10
Tuesday Good
OZONE
Wednesday Good
PM10
Wednesday Good
OZONE
Thursday Good
PM10
Thursday Good
OZONE
Friday Good
PM10
Friday Good
OZONE

Snow Depth

Station Depth Elevation
No new snow has been reported.

Earthquake Activity

City Distance Mag. Time & Date
No recent earthquake activity has been reported nearby.
Minimum magnitude displayed is 2.5.

Coastal Water Temperatures

Place Temperature
Sabine Pass North, TX 75.0 °F
Port Arthur, TX 75.9 °F
Calcasieu Pass, LA 75.9 °F
Rollover Pass, TX 78.1 °F
Galveston Bay (North Jetty), TX 75.9 °F

Nearby Weather Stations